Date,TemperatureHighF,TemperatureAvgF,TemperatureLowF,DewpointHighF,DewpointAvgF,DewpointLowF,HumidityHigh,HumidityAvg,HumidityLow,PressureMaxIn,PressureMinIn,WindSpeedMaxMPH,WindSpeedAvgMPH,GustSpeedMaxMPH,PrecipitationSumIn
2013-2-1,6.6,-5.2,-17.1,-6.8,-14.7,-24.8,71,63,51,30.29,30.06,9,1,13,0.00
2013-2-2,13.8,4.6,-8.0,1.4,-4.3,-14.9,74,66,53,30.16,29.96,8,0,11,0.00
2013-2-3,15.5,9.5,1.9,2.6,0.0,-4.7,73,65,54,30.05,29.95,13,2,19,0.00
2013-2-4,18.1,9.0,-3.3,4.5,-2.8,-12.3,70,58,46,30.06,29.72,13,1,13,0.02
2013-2-5,25.9,18.0,0.0,18.3,9.1,-7.5,78,68,54,30.06,29.63,22,4,25,0.23
2013-2-6,23.2,14.4,-1.1,16.8,7.5,-8.0,78,74,69,30.08,29.95,9,1,12,0.05
2013-2-7,28.8,24.7,22.3,19.5,18.3,16.7,83,77,66,30.25,30.01,17,6,23,0.09
2013-2-8,31.2,16.8,3.0,16.8,8.5,-3.1,80,70,53,30.36,30.22,13,0,13,0.14
2013-2-9,32.9,27.1,12.9,25.0,21.0,7.1,84,77,70,30.22,29.94,14,3,19,0.00
2013-2-10,32.5,28.6,25.5,28.2,24.3,21.1,86,84,81,29.94,29.31,15,1,17,0.00
2013-2-11,30.7,25.7,17.2,27.0,18.2,9.8,86,73,61,30.00,29.33,21,3,26,0.00
2013-2-12,33.4,21.3,7.0,21.8,13.5,1.6,80,72,59,30.00,29.77,16,2,16,0.00
2013-2-13,37.0,29.5,22.3,27.3,22.9,15.7,85,76,62,29.77,29.59,8,0,8,0.00
2013-2-14,32.2,24.9,12.9,26.8,14.1,0.4,85,65,40,30.14,29.61,21,5,32,0.00
2013-2-15,17.6,10.6,1.2,2.1,-0.8,-7.2,70,59,49,30.27,30.13,16,4,22,0.00
2013-2-16,19.2,6.9,-6.5,5.6,-2.6,-14.0,74,65,53,30.22,30.10,9,0,9,0.00
2013-2-17,30.4,16.0,-7.8,16.6,6.5,-15.3,74,66,53,30.10,29.64,18,2,20,0.00
2013-2-18,33.8,23.5,9.3,25.5,15.1,-0.1,76,70,63,29.77,29.51,31,6,35,0.00
2013-2-19,10.2,4.6,-0.2,-0.6,-6.6,-10.4,69,59,49,30.32,29.77,29,13,37,0.00
2013-2-20,16.0,4.7,-6.0,2.1,-5.2,-12.9,71,63,52,30.44,30.32,9,1,14,0.00
2013-2-21,25.2,12.0,-8.0,14.3,2.2,-15.4,75,65,49,30.46,30.11,18,3,22,0.00
2013-2-22,33.6,24.3,13.6,22.2,16.9,8.1,81,73,60,30.11,29.84,15,4,20,0.00
2013-2-23,38.8,27.4,13.3,25.3,19.0,7.7,82,71,55,29.93,29.81,9,1,10,0.00
2013-2-24,43.0,23.3,7.5,25.1,14.4,2.1,80,70,47,30.09,29.93,6,0,7,0.00
2013-2-25,40.3,23.5,8.4,23.9,14.4,2.4,79,69,50,30.10,30.03,3,0,7,0.00
2013-2-26,39.4,25.4,10.8,25.7,17.0,5.0,82,71,56,30.07,29.90,20,4,21,0.00
2013-2-27,28.6,27.7,27.0,22.0,21.0,20.2,77,76,72,29.91,29.89,16,5,17,0.00